Overview Statistics Trail Chart Weather Telemetry Raw packets
 

This is the latest recevied weather packets stored in our database for station/object IR9AK-10. If no packets are shown the sender has not sent any weather packets the latest 10 day(s).

<< 14 15 16 17 18 19 20 >>
Time Temp. Humidity Pressure Rain* Wind** Luminosity Snow
1788403370 36.11° C 29% 1061.3 hPa - - - -
1788402770 36.11° C 30% 1061.5 hPa - - - -
1788402171 36.11° C 30% 1061.6 hPa - - - -
1788401571 36.11° C 30% 1061.7 hPa - - - -
1788400972 36.11° C 30% 1061.8 hPa - - - -
1788400372 35.56° C 33% 1061.8 hPa - - - -
1788399832 34.44° C 36% 1061.9 hPa - - - -
1788399774 34.44° C 36% 1061.9 hPa - - - -
1788378443 39.44° C 37% 1062.6 hPa - - - -
1788377843 39.44° C 38% 1062.7 hPa - - - -
1788377244 39.44° C 38% 1062.7 hPa - - - -
1788376644 40° C 38% 1062.6 hPa - - - -
1788376046 39.44° C 38% 1062.5 hPa - - - -
1788375447 40° C 38% 1062.5 hPa - - - -
1788374848 40° C 38% 1062.4 hPa - - - -
1788374250 39.44° C 38% 1062.2 hPa - - - -
1788373650 40° C 38% 1062.1 hPa - - - -
1788373052 40° C 37% 1061.9 hPa - - - -
1788372453 40° C 37% 1061.9 hPa - - - -
1788371855 40° C 37% 1061.8 hPa - - - -
1788371256 40.56° C 37% 1061.7 hPa - - - -
1788370657 40.56° C 37% 1061.7 hPa - - - -
1788370057 40.56° C 37% 1061.7 hPa - - - -
1788369458 40.56° C 37% 1061.6 hPa - - - -
1788368860 40.56° C 37% 1061.6 hPa - - - -

* Rain since midnight (hover to see other rain measurements)
** Current wind speed in m/s (hover to see current wind gust speed)